createdAt,value
2023-04-02T00:00:25.029Z,53.540000
2023-04-02T00:05:27.132Z,53.336000
2023-04-02T00:10:29.331Z,53.144000
2023-04-02T00:15:32.453Z,52.820000
2023-04-02T00:20:34.231Z,52.460000
2023-04-02T00:25:16.051Z,52.184000
2023-04-02T00:30:18.479Z,51.896000
2023-04-02T00:35:20.498Z,51.788000
2023-04-02T00:40:22.691Z,51.452857
2023-04-02T00:45:24.894Z,51.296000
2023-04-02T00:50:26.565Z,51.260000
2023-04-02T00:55:28.594Z,50.828000
2023-04-02T01:00:30.689Z,50.384000
2023-04-02T01:05:33.129Z,50.360000
2023-04-02T01:10:35.363Z,50.192000
2023-04-02T01:15:16.940Z,49.952000
2023-04-02T01:20:19.079Z,49.760000
2023-04-02T01:25:21.169Z,49.424000
2023-04-02T01:30:22.880Z,49.280000
2023-04-02T01:35:24.796Z,49.280000
2023-04-02T01:40:26.738Z,49.340000
2023-04-02T01:45:28.721Z,49.340000
2023-04-02T01:50:30.604Z,49.100000
2023-04-02T01:55:32.821Z,48.920000
2023-04-02T02:00:34.774Z,48.536000
2023-04-02T02:05:16.954Z,48.392000
2023-04-02T02:10:19.498Z,48.560000
2023-04-02T02:15:21.673Z,48.212000
2023-04-02T02:20:23.790Z,47.647143
2023-04-02T02:25:26.094Z,47.204000
2023-04-02T02:30:28.031Z,46.652000
2023-04-02T02:35:30.255Z,46.460000
2023-04-02T02:40:32.611Z,46.868000
2023-04-02T02:45:36.069Z,47.444000
2023-04-02T02:50:16.172Z,47.792000
2023-04-02T02:55:18.594Z,48.044000
2023-04-02T03:00:20.660Z,47.900000
2023-04-02T03:05:22.921Z,48.032857
2023-04-02T03:10:24.889Z,48.104000
2023-04-02T03:15:26.872Z,47.264000
2023-04-02T03:20:28.844Z,46.760000
2023-04-02T03:25:30.902Z,46.772000
2023-04-02T03:30:32.598Z,46.880000
2023-04-02T03:35:35.078Z,46.592000
2023-04-02T03:40:16.459Z,46.388000
2023-04-02T03:45:18.335Z,46.244000
2023-04-02T03:50:21.223Z,46.496000
2023-04-02T03:55:22.206Z,46.310000
2023-04-02T04:00:23.916Z,46.556000
2023-04-02T04:05:25.708Z,46.544000
2023-04-02T04:10:28.471Z,46.232000
2023-04-02T04:15:30.374Z,45.908000
2023-04-02T04:20:32.202Z,45.440000
2023-04-02T04:25:34.573Z,45.212000
2023-04-02T04:30:15.758Z,45.344000
2023-04-02T04:35:17.765Z,45.500000
2023-04-02T04:40:19.725Z,45.164000
2023-04-02T04:45:21.550Z,44.960000
2023-04-02T04:50:23.403Z,44.921429
2023-04-02T04:55:25.488Z,44.540000
2023-04-02T05:00:27.451Z,45.020000
2023-04-02T05:05:29.081Z,46.040000
2023-04-02T05:10:30.861Z,46.352000
2023-04-02T05:15:33.460Z,46.532000
2023-04-02T05:20:35.433Z,47.432000
2023-04-02T05:25:17.235Z,47.840000
2023-04-02T05:30:20.235Z,48.284000
2023-04-02T05:35:20.996Z,48.272000
2023-04-02T05:40:23.014Z,47.210000
2023-04-02T05:45:25.335Z,45.908000
2023-04-02T05:50:27.268Z,45.344000
2023-04-02T05:55:29.696Z,44.936000
2023-04-02T06:00:31.487Z,44.660000
2023-04-02T06:05:33.981Z,44.228000
2023-04-02T06:10:35.504Z,43.808000
2023-04-02T06:15:17.418Z,43.688000
2023-04-02T06:20:19.273Z,43.460000
2023-04-02T06:25:21.499Z,43.112000
2023-04-02T06:30:23.940Z,42.812857
2023-04-02T06:35:26.001Z,42.692000
2023-04-02T06:40:27.936Z,42.416000
2023-04-02T06:45:29.826Z,42.248000
2023-04-02T06:50:32.374Z,42.080000
2023-04-02T06:55:34.838Z,42.080000
2023-04-02T07:00:16.623Z,41.888000
2023-04-02T07:05:19.046Z,41.348000
2023-04-02T07:10:21.020Z,40.976000
2023-04-02T07:15:23.079Z,40.730000
2023-04-02T07:20:25.120Z,40.628000
2023-04-02T07:25:26.908Z,40.484000
2023-04-02T07:30:28.974Z,40.640000
2023-04-02T07:35:31.638Z,40.640000
2023-04-02T07:40:33.675Z,40.484000
2023-04-02T07:45:37.175Z,40.640000
2023-04-02T07:50:17.664Z,40.460000
2023-04-02T07:55:19.477Z,40.376000
2023-04-02T08:00:21.283Z,40.100000
2023-04-02T08:05:23.344Z,39.997143
2023-04-02T08:10:25.378Z,39.812000
2023-04-02T08:15:27.370Z,39.740000
2023-04-02T08:20:29.507Z,39.704000
2023-04-02T08:25:31.426Z,39.584000
2023-04-02T08:30:33.628Z,39.392000
2023-04-02T08:35:35.920Z,39.488000
2023-04-02T08:40:17.461Z,39.392000
2023-04-02T08:45:38.326Z,39.560000
2023-04-02T08:50:21.659Z,39.560000
2023-04-02T08:55:23.550Z,39.740000
2023-04-02T09:00:25.325Z,39.560000
2023-04-02T09:05:27.474Z,39.560000
2023-04-02T09:10:29.281Z,39.308000
2023-04-02T09:15:31.277Z,39.020000
2023-04-02T09:20:33.278Z,38.864000
2023-04-02T09:25:35.825Z,38.600000
2023-04-02T09:30:17.132Z,38.552000
2023-04-02T09:35:26.145Z,38.552000
2023-04-02T09:40:21.207Z,38.660000
2023-04-02T09:45:22.972Z,38.891429
2023-04-02T09:50:24.870Z,39.128000
2023-04-02T09:55:27.177Z,39.704000
2023-04-02T10:00:32.567Z,39.920000
2023-04-02T10:05:40.580Z,39.944000
2023-04-02T10:10:33.375Z,40.040000
2023-04-02T10:15:35.182Z,39.872000
2023-04-02T10:20:16.808Z,39.740000
2023-04-02T10:25:18.906Z,39.560000
2023-04-02T10:30:20.887Z,39.320000
2023-04-02T10:35:23.023Z,39.097143
2023-04-02T10:40:24.916Z,38.780000
2023-04-02T10:45:26.734Z,38.360000
2023-04-02T10:50:28.754Z,37.760000
2023-04-02T10:55:30.684Z,37.484000
2023-04-02T11:00:32.749Z,37.400000
2023-04-02T11:05:34.965Z,37.328000
2023-04-02T11:10:16.397Z,37.232000
2023-04-02T11:15:18.341Z,37.400000
2023-04-02T11:20:20.377Z,37.376000
2023-04-02T11:25:22.977Z,37.168571
2023-04-02T11:30:24.676Z,36.932000
2023-04-02T11:35:26.592Z,36.884000
2023-04-02T11:40:28.899Z,37.004000
2023-04-02T11:45:31.148Z,36.704000
2023-04-02T11:50:32.711Z,36.584000
2023-04-02T11:55:35.160Z,36.500000
2023-04-02T12:00:18.093Z,36.500000
2023-04-02T12:05:19.035Z,36.260000
2023-04-02T12:10:20.894Z,36.164000
2023-04-02T12:15:23.085Z,36.320000
2023-04-02T12:20:24.816Z,36.320000
2023-04-02T12:25:27.090Z,36.320000
2023-04-02T12:30:29.027Z,36.188000
2023-04-02T12:35:31.463Z,36.248000
2023-04-02T12:40:33.873Z,36.164000
2023-04-02T12:45:35.110Z,35.960000
2023-04-02T12:50:16.793Z,35.972000
2023-04-02T12:55:18.830Z,36.140000
2023-04-02T13:00:20.865Z,36.140000
2023-04-02T13:05:22.779Z,36.037143
2023-04-02T13:10:25.000Z,35.960000
2023-04-02T13:15:28.177Z,35.960000
2023-04-02T13:20:28.919Z,35.780000
2023-04-02T13:25:30.950Z,35.744000
2023-04-02T13:30:32.932Z,35.744000
2023-04-02T13:35:35.178Z,35.768000
2023-04-02T13:40:16.861Z,35.660000
2023-04-02T13:45:18.937Z,35.780000
2023-04-02T13:50:20.700Z,35.960000
2023-04-02T13:55:22.813Z,36.050000
2023-04-02T14:00:24.704Z,36.140000
2023-04-02T14:05:27.006Z,36.248000
2023-04-02T14:10:28.799Z,36.320000
2023-04-02T14:15:30.676Z,36.368000
2023-04-02T14:20:32.540Z,36.500000
2023-04-02T14:25:35.008Z,36.596000
2023-04-02T14:30:16.176Z,36.680000
2023-04-02T14:35:18.076Z,36.680000
2023-04-02T14:40:20.273Z,36.416000
2023-04-02T14:45:22.659Z,36.564286
2023-04-02T14:50:24.436Z,36.764000
2023-04-02T14:55:27.121Z,36.860000
2023-04-02T15:00:29.553Z,36.908000
2023-04-02T15:05:31.490Z,36.872000
2023-04-02T15:10:33.840Z,37.052000
2023-04-02T15:15:40.494Z,37.280000
2023-04-02T15:20:17.607Z,37.256000
2023-04-02T15:25:19.622Z,37.400000
2023-04-02T15:30:21.980Z,37.155714
2023-04-02T15:35:24.386Z,36.788000
2023-04-02T15:40:26.680Z,36.404000
2023-04-02T15:45:29.474Z,36.476000
2023-04-02T15:50:30.516Z,36.596000
2023-04-02T15:55:32.961Z,36.536000
2023-04-02T16:00:34.915Z,36.632000
2023-04-02T16:05:16.280Z,36.692000
2023-04-02T16:10:22.508Z,36.800000
2023-04-02T16:15:20.268Z,36.560000
2023-04-02T16:20:22.614Z,36.602857
2023-04-02T16:25:24.892Z,36.344000
2023-04-02T16:30:26.896Z,36.320000
2023-04-02T16:35:42.349Z,36.368000
2023-04-02T16:40:30.905Z,36.224000
2023-04-02T16:45:33.009Z,36.320000
2023-04-02T16:50:35.341Z,36.260000
2023-04-02T16:55:17.013Z,35.924000
2023-04-02T17:00:19.097Z,35.852000
2023-04-02T17:05:21.057Z,35.636000
2023-04-02T17:10:23.286Z,35.638571
2023-04-02T17:15:28.158Z,35.420000
2023-04-02T17:20:27.741Z,35.984000
2023-04-02T17:25:29.647Z,36.572000
2023-04-02T17:30:31.580Z,36.560000
2023-04-02T17:35:33.669Z,35.504000
2023-04-02T17:40:36.433Z,35.732000
2023-04-02T17:45:17.755Z,35.876000
2023-04-02T17:50:19.974Z,36.128000
2023-04-02T17:55:22.321Z,35.998571
2023-04-02T18:00:24.660Z,36.164000
2023-04-02T18:05:27.204Z,36.620000
2023-04-02T18:10:29.259Z,37.232000
2023-04-02T18:15:31.899Z,36.824000
2023-04-02T18:20:34.456Z,36.548000
2023-04-02T18:25:16.401Z,37.220000
2023-04-02T18:30:18.377Z,37.436000
2023-04-02T18:35:20.485Z,36.752000
2023-04-02T18:40:22.518Z,37.232857
2023-04-02T18:45:24.587Z,38.012000
2023-04-02T18:50:26.625Z,38.636000
2023-04-02T18:55:28.468Z,39.056000
2023-04-02T19:00:30.696Z,39.392000
2023-04-02T19:05:32.239Z,39.404000
2023-04-02T19:10:34.027Z,39.656000
2023-04-02T19:15:35.827Z,39.644000
2023-04-02T19:20:17.565Z,40.016000
2023-04-02T19:25:19.606Z,40.544000
2023-04-02T19:30:21.602Z,40.532000
2023-04-02T19:35:23.361Z,39.984286
2023-04-02T19:40:25.662Z,40.196000
2023-04-02T19:45:27.738Z,40.304000
2023-04-02T19:50:29.975Z,40.604000
2023-04-02T19:55:31.700Z,40.184000
2023-04-02T20:00:33.701Z,39.608000
2023-04-02T20:05:35.576Z,39.152000
2023-04-02T20:10:17.373Z,40.316000
2023-04-02T20:15:19.362Z,39.608000
2023-04-02T20:20:21.184Z,39.368000
2023-04-02T20:25:23.113Z,38.480000
2023-04-02T20:30:24.977Z,37.940000
2023-04-02T20:35:27.479Z,39.068000
2023-04-02T20:40:29.663Z,40.076000
2023-04-02T20:45:31.381Z,39.104000
2023-04-02T20:50:33.704Z,39.044000
2023-04-02T20:55:35.911Z,39.068000
2023-04-02T21:00:17.694Z,38.504000
2023-04-02T21:05:19.593Z,38.708000
2023-04-02T21:10:21.359Z,38.996000
2023-04-02T21:15:23.314Z,39.328571
2023-04-02T21:20:25.312Z,39.128000
2023-04-02T21:25:28.067Z,39.476000
2023-04-02T21:30:30.341Z,40.028000
2023-04-02T21:35:32.472Z,40.388000
2023-04-02T21:40:34.540Z,41.168000
2023-04-02T21:45:16.029Z,41.144000
2023-04-02T21:50:18.213Z,40.604000
2023-04-02T21:55:20.549Z,41.324000
2023-04-02T22:00:22.801Z,41.488571
2023-04-02T22:05:24.912Z,41.540000
2023-04-02T22:10:26.887Z,41.888000
2023-04-02T22:15:29.482Z,41.780000
2023-04-02T22:20:30.985Z,41.300000
2023-04-02T22:25:33.327Z,40.832000
2023-04-02T22:30:35.687Z,41.060000
2023-04-02T22:35:16.976Z,41.120000
2023-04-02T22:40:19.299Z,41.648000
2023-04-02T22:45:21.229Z,41.636000
2023-04-02T22:50:23.487Z,41.398571
2023-04-02T22:55:26.381Z,41.384000
2023-04-02T23:00:27.196Z,41.300000
2023-04-02T23:05:29.273Z,41.516000
2023-04-02T23:10:32.521Z,40.940000
2023-04-02T23:15:33.439Z,41.264000
2023-04-02T23:20:36.486Z,41.108000
2023-04-02T23:25:17.560Z,40.868000
2023-04-02T23:30:20.081Z,40.808000
2023-04-02T23:35:22.391Z,40.614286
2023-04-02T23:40:24.754Z,40.256000
2023-04-02T23:45:26.601Z,39.908000
2023-04-02T23:50:28.721Z,39.632000
2023-04-02T23:55:31.064Z,39.824000
